Hovedside
METAR-TAF:

METAR-TAF

Lufthavner :

Såtenäs, Sverige

breddegrad: 58-26N, lengdegrad: 012-42E, høyde over havet: 54 m

Gjeldene værobservasjon

Denne rapporten ble laget for 42 minutter siden, klokken 09:50 UTC
Vind 14 kt fra Sørvest
Temperatur 14°C
Luftfuktighet 82%
Trykk 996 hPa
Sikt 10 km eller mer
lette regnbyger

METAR: ESIB 250950Z AUTO 23014KT 9999 -SHRA FEW022/// BKN056/// 14/11 Q0996 RESHRA

Tid: 12:32 (10:32 UTC)


TAF: fraværende

Værobservasjoner og værvarsel for over 4000 flyplasser (METAR- og TAF-rapporter).

Tilgjengelige stasjoner er representert av de røde og gule prikkene på kartet.

Hold musepekeren over prikken for å se navnet på stasjonen.

Klikk så for å se værobservasjoner og -varsler.

For å forandre kartet kan du klikke på den grønne knappen med svart kryss for å zoome inn, på den grønne knappen med strek for å zoome ut, eller på de grønne pilene for å se tilstøtende kart.


METAR-TAF: